createdAt,value
2018-09-15T00:01:00.749Z,94.80
2018-09-15T00:03:29.778Z,95.00
2018-09-15T00:05:58.837Z,94.90
2018-09-15T00:08:27.889Z,95.00
2018-09-15T00:10:56.875Z,95.00
2018-09-15T00:13:25.908Z,94.90
2018-09-15T00:15:54.985Z,95.00
2018-09-15T00:18:24.046Z,95.00
2018-09-15T00:20:52.909Z,95.10
2018-09-15T00:23:21.932Z,95.00
2018-09-15T00:25:50.814Z,95.10
2018-09-15T00:28:19.833Z,95.10
2018-09-15T00:30:48.925Z,95.00
2018-09-15T00:33:17.933Z,95.10
2018-09-15T00:35:46.907Z,95.10
2018-09-15T00:38:15.969Z,95.20
2018-09-15T00:40:45.010Z,95.20
2018-09-15T00:43:13.968Z,95.20
2018-09-15T00:45:42.937Z,95.20
2018-09-15T00:48:11.978Z,95.40
2018-09-15T00:50:40.963Z,95.40
2018-09-15T00:53:09.961Z,95.30
2018-09-15T00:55:38.981Z,95.40
2018-09-15T00:58:08.017Z,95.70
2018-09-15T01:00:37.084Z,95.40
2018-09-15T01:03:06.400Z,95.40
2018-09-15T01:05:35.417Z,95.50
2018-09-15T01:08:04.438Z,95.50
2018-09-15T01:10:33.628Z,95.50
2018-09-15T01:13:02.616Z,95.50
2018-09-15T01:15:31.654Z,95.40
2018-09-15T01:18:00.821Z,95.50
2018-09-15T01:20:30.137Z,95.50
2018-09-15T01:22:59.226Z,95.60
2018-09-15T01:25:28.448Z,95.60
2018-09-15T01:27:57.688Z,95.60
2018-09-15T01:30:26.833Z,95.70
2018-09-15T01:32:56.151Z,95.60
2018-09-15T01:35:25.144Z,95.60
2018-09-15T01:37:54.055Z,95.60
2018-09-15T01:40:23.084Z,95.70
2018-09-15T01:42:52.111Z,95.60
2018-09-15T01:45:21.095Z,95.80
2018-09-15T01:47:50.183Z,95.80
2018-09-15T01:50:19.108Z,95.80
2018-09-15T01:52:47.975Z,95.80
2018-09-15T01:55:16.932Z,95.70
2018-09-15T01:57:45.994Z,95.80
2018-09-15T02:00:15.034Z,96.10
2018-09-15T02:02:44.005Z,95.70
2018-09-15T02:05:13.040Z,95.80
2018-09-15T02:07:42.018Z,95.80
2018-09-15T02:10:11.052Z,95.90
2018-09-15T02:12:39.936Z,95.90
2018-09-15T02:15:09.056Z,96.20
2018-09-15T02:17:38.048Z,95.80
2018-09-15T02:20:07.289Z,96.00
2018-09-15T02:22:36.245Z,95.70
2018-09-15T02:25:05.325Z,96.40
2018-09-15T02:27:34.389Z,96.00
2018-09-15T02:30:03.685Z,96.00
2018-09-15T02:32:32.614Z,96.00
2018-09-15T02:35:01.684Z,96.00
2018-09-15T02:37:30.686Z,96.00
2018-09-15T02:39:59.596Z,96.00
2018-09-15T02:42:28.629Z,96.00
2018-09-15T02:44:57.630Z,96.00
2018-09-15T02:47:26.545Z,96.00
2018-09-15T02:49:55.521Z,96.00
2018-09-15T02:52:24.588Z,95.80
2018-09-15T02:54:53.636Z,95.70
2018-09-15T02:57:22.564Z,96.00
2018-09-15T02:59:51.796Z,96.10
2018-09-15T03:02:20.830Z,96.00
2018-09-15T03:04:49.694Z,96.00
2018-09-15T03:07:18.888Z,96.10
2018-09-15T03:09:47.864Z,96.10
2018-09-15T03:12:16.903Z,96.00
2018-09-15T03:14:45.860Z,96.30
2018-09-15T03:17:14.824Z,96.10
2018-09-15T03:19:43.745Z,96.50
2018-09-15T03:22:12.697Z,96.00
2018-09-15T03:24:41.789Z,96.10
2018-09-15T03:27:10.967Z,96.40
2018-09-15T03:29:39.904Z,96.40
2018-09-15T03:32:09.017Z,96.30
2018-09-15T03:34:38.236Z,96.50
2018-09-15T03:37:07.253Z,96.40
2018-09-15T03:39:36.148Z,96.60
2018-09-15T03:42:05.400Z,96.60
2018-09-15T03:44:34.203Z,96.40
2018-09-15T03:47:03.268Z,96.50
2018-09-15T03:49:32.280Z,96.50
2018-09-15T03:52:01.257Z,96.50
2018-09-15T03:54:30.280Z,96.50
2018-09-15T03:56:59.173Z,96.50
2018-09-15T03:59:28.208Z,96.50
2018-09-15T04:01:57.025Z,96.60
2018-09-15T04:04:26.009Z,97.50
2018-09-15T04:06:54.776Z,96.60
2018-09-15T04:09:23.776Z,96.60
2018-09-15T04:11:52.776Z,96.80
2018-09-15T04:14:21.821Z,96.80
2018-09-15T04:16:50.897Z,96.60
2018-09-15T04:19:19.924Z,96.80
2018-09-15T04:21:48.900Z,96.80
2018-09-15T04:24:17.941Z,96.80
2018-09-15T04:26:46.936Z,96.70
2018-09-15T04:29:15.951Z,96.80
2018-09-15T04:31:44.932Z,96.90
2018-09-15T04:34:13.976Z,96.90
2018-09-15T04:36:42.952Z,96.80
2018-09-15T04:39:12.749Z,97.10
2018-09-15T04:41:42.067Z,97.00
2018-09-15T04:44:11.012Z,97.00
2018-09-15T04:46:39.984Z,97.00
2018-09-15T04:49:08.840Z,97.00
2018-09-15T04:51:37.753Z,97.00
2018-09-15T04:54:06.834Z,97.00
2018-09-15T04:56:35.914Z,97.00
2018-09-15T04:59:05.322Z,97.10
2018-09-15T05:01:34.357Z,96.90
2018-09-15T05:04:03.398Z,97.10
2018-09-15T05:06:32.422Z,96.70
2018-09-15T05:09:01.356Z,97.20
2018-09-15T05:11:30.299Z,97.10
2018-09-15T05:13:59.256Z,97.30
2018-09-15T05:16:28.271Z,97.20
2018-09-15T05:18:57.266Z,97.20
2018-09-15T05:21:26.420Z,97.10
2018-09-15T05:23:55.391Z,97.20
2018-09-15T05:26:24.306Z,97.10
2018-09-15T05:28:53.491Z,97.60
2018-09-15T05:31:22.608Z,97.20
2018-09-15T05:33:51.868Z,97.30
2018-09-15T05:36:20.905Z,97.30
2018-09-15T05:38:49.917Z,97.40
2018-09-15T05:41:19.151Z,97.30
2018-09-15T05:43:48.164Z,97.30
2018-09-15T05:46:17.036Z,97.30
2018-09-15T05:48:46.030Z,97.40
2018-09-15T05:51:15.089Z,97.50
2018-09-15T05:53:44.064Z,97.50
2018-09-15T05:56:13.166Z,97.50
2018-09-15T05:58:42.200Z,97.50
2018-09-15T06:01:11.388Z,97.50
2018-09-15T06:03:40.477Z,97.50
2018-09-15T06:06:09.529Z,97.50
2018-09-15T06:08:38.500Z,97.50
2018-09-15T06:11:07.640Z,97.40
2018-09-15T06:13:36.613Z,97.40
2018-09-15T06:16:05.783Z,97.70
2018-09-15T06:18:34.828Z,97.40
2018-09-15T06:21:03.874Z,97.60
2018-09-15T06:23:32.716Z,97.40
2018-09-15T06:26:01.768Z,97.40
2018-09-15T06:28:30.815Z,97.60
2018-09-15T06:30:59.932Z,97.50
2018-09-15T06:33:28.840Z,97.40
2018-09-15T06:35:57.856Z,97.40
2018-09-15T06:38:26.993Z,97.10
2018-09-15T06:40:55.963Z,97.20
2018-09-15T06:43:24.993Z,97.50
2018-09-15T06:45:54.091Z,97.40
2018-09-15T06:48:22.961Z,97.20
2018-09-15T06:50:51.777Z,97.30
2018-09-15T06:53:20.717Z,97.40
2018-09-15T06:55:49.692Z,97.40
2018-09-15T06:58:18.720Z,97.40
2018-09-15T07:00:47.718Z,97.30
2018-09-15T07:03:16.777Z,97.20
2018-09-15T07:05:45.654Z,97.30
2018-09-15T07:08:14.766Z,97.30
2018-09-15T07:10:43.809Z,97.20
2018-09-15T07:13:12.723Z,97.20
2018-09-15T07:15:41.943Z,97.20
2018-09-15T07:18:10.929Z,97.20
2018-09-15T07:20:39.849Z,97.00
2018-09-15T07:23:08.798Z,97.20
2018-09-15T07:25:37.870Z,97.20
2018-09-15T07:28:07.444Z,97.10
2018-09-15T07:30:36.472Z,97.10
2018-09-15T07:33:05.741Z,97.10
2018-09-15T07:35:34.808Z,97.10
2018-09-15T07:38:03.806Z,97.30
2018-09-15T07:40:32.837Z,97.30
2018-09-15T07:43:01.916Z,97.20
2018-09-15T07:45:30.904Z,97.20
2018-09-15T07:47:59.917Z,97.30
2018-09-15T07:50:28.952Z,97.30
2018-09-15T07:52:57.920Z,97.40
2018-09-15T07:55:26.959Z,97.30
2018-09-15T07:57:56.102Z,97.30
2018-09-15T08:00:25.155Z,97.20
2018-09-15T08:02:54.156Z,97.20
2018-09-15T08:05:23.080Z,97.30
2018-09-15T08:07:52.062Z,97.40
2018-09-15T08:10:20.902Z,97.20
2018-09-15T08:12:49.872Z,97.40
2018-09-15T08:15:18.773Z,97.40
2018-09-15T08:17:47.898Z,97.40
2018-09-15T08:20:16.808Z,97.40
2018-09-15T08:22:45.688Z,97.70
2018-09-15T08:25:14.613Z,97.60
2018-09-15T08:27:43.493Z,97.60
2018-09-15T08:30:12.520Z,97.40
2018-09-15T08:32:41.504Z,97.70
2018-09-15T08:35:10.462Z,97.50
2018-09-15T08:37:39.424Z,97.50
2018-09-15T08:40:08.449Z,97.50
2018-09-15T08:42:37.328Z,97.50
2018-09-15T08:45:06.512Z,97.50
2018-09-15T08:47:35.379Z,97.50
2018-09-15T08:50:04.332Z,97.50
2018-09-15T08:52:33.274Z,97.70
2018-09-15T08:55:02.248Z,97.60
2018-09-15T08:57:31.271Z,98.10
2018-09-15T09:00:00.253Z,97.60
2018-09-15T09:02:29.184Z,97.70
2018-09-15T09:04:58.160Z,97.60
2018-09-15T09:07:27.092Z,97.60
2018-09-15T09:09:56.172Z,97.60
2018-09-15T09:12:25.208Z,97.80
2018-09-15T09:14:54.183Z,98.20
2018-09-15T09:17:23.226Z,97.80
2018-09-15T09:19:52.148Z,97.80
2018-09-15T09:22:21.181Z,97.80
2018-09-15T09:24:50.101Z,97.90
2018-09-15T09:27:19.147Z,97.90
2018-09-15T09:29:48.113Z,97.80
2018-09-15T09:32:17.240Z,97.80
2018-09-15T09:34:46.232Z,97.80
2018-09-15T09:37:15.268Z,98.00
2018-09-15T09:39:44.311Z,97.90
2018-09-15T09:42:13.440Z,97.90
2018-09-15T09:44:42.411Z,97.80
2018-09-15T09:47:11.257Z,97.70
2018-09-15T09:49:40.297Z,97.80
2018-09-15T09:52:09.269Z,97.80
2018-09-15T09:54:38.325Z,97.80
2018-09-15T09:57:07.289Z,97.90
2018-09-15T09:59:36.420Z,98.00
2018-09-15T10:02:10.560Z,97.90
2018-09-15T10:04:39.651Z,98.10
2018-09-15T10:07:08.648Z,97.80
2018-09-15T10:09:38.130Z,97.80
2018-09-15T10:12:07.285Z,97.50
2018-09-15T10:14:36.097Z,97.80
2018-09-15T10:17:05.274Z,97.70
2018-09-15T10:19:34.396Z,98.10
2018-09-15T10:22:03.372Z,97.70
2018-09-15T10:24:32.412Z,97.60
2018-09-15T10:27:01.496Z,97.30
2018-09-15T10:29:30.624Z,97.50
2018-09-15T10:31:59.646Z,97.50
2018-09-15T10:34:28.643Z,97.50
2018-09-15T10:36:57.626Z,97.40
2018-09-15T10:39:26.705Z,97.40
2018-09-15T10:41:55.744Z,97.40
2018-09-15T10:44:24.806Z,97.30
2018-09-15T10:46:53.728Z,97.30
2018-09-15T10:49:22.679Z,97.30
2018-09-15T10:51:51.645Z,97.20
2018-09-15T10:54:20.653Z,97.50
2018-09-15T10:56:49.742Z,97.20
2018-09-15T10:59:18.788Z,97.20
2018-09-15T11:01:47.800Z,97.00
2018-09-15T11:04:16.767Z,97.10
2018-09-15T11:06:45.705Z,97.00
2018-09-15T11:09:14.693Z,96.90
2018-09-15T11:11:43.740Z,96.70
2018-09-15T11:14:12.677Z,96.70
2018-09-15T11:16:41.629Z,96.80
2018-09-15T11:19:10.569Z,96.70
2018-09-15T11:21:39.423Z,96.80
2018-09-15T11:24:08.408Z,96.60
2018-09-15T11:26:37.444Z,96.40
2018-09-15T11:29:06.696Z,96.30
2018-09-15T11:31:35.768Z,95.90
2018-09-15T11:34:04.826Z,93.50
2018-09-15T11:36:33.802Z,93.70
2018-09-15T11:39:02.823Z,92.70
2018-09-15T11:41:31.904Z,92.70
2018-09-15T11:44:00.981Z,92.10
2018-09-15T11:46:29.960Z,92.50
2018-09-15T11:48:59.014Z,92.50
2018-09-15T11:51:27.975Z,92.80
2018-09-15T11:53:57.028Z,93.30
2018-09-15T11:56:26.041Z,93.20
2018-09-15T11:58:55.217Z,93.30
2018-09-15T12:01:24.220Z,93.30
2018-09-15T12:03:53.309Z,93.00
2018-09-15T12:06:22.321Z,92.90
2018-09-15T12:08:51.233Z,93.30
2018-09-15T12:11:20.321Z,93.30
2018-09-15T12:13:49.256Z,93.30
2018-09-15T12:16:18.228Z,93.30
2018-09-15T12:18:47.166Z,93.20
2018-09-15T12:21:16.209Z,93.10
2018-09-15T12:23:45.073Z,93.00
2018-09-15T12:26:14.148Z,92.90
2018-09-15T12:28:43.093Z,93.90
2018-09-15T12:31:12.055Z,94.60
2018-09-15T12:33:41.040Z,95.60
2018-09-15T12:36:10.277Z,96.40
2018-09-15T12:38:39.337Z,97.50
2018-09-15T12:41:08.304Z,97.90
2018-09-15T12:43:37.320Z,96.20
2018-09-15T12:46:06.300Z,96.30
2018-09-15T12:48:35.333Z,97.90
2018-09-15T12:51:04.300Z,96.60
2018-09-15T12:53:33.296Z,95.80
2018-09-15T12:56:02.244Z,96.50
2018-09-15T12:58:31.313Z,95.10
2018-09-15T13:01:00.557Z,95.80
2018-09-15T13:03:29.508Z,95.30
2018-09-15T13:05:58.489Z,96.10
2018-09-15T13:08:27.436Z,96.30
2018-09-15T13:10:56.433Z,95.40
2018-09-15T13:13:25.353Z,95.50
2018-09-15T13:15:54.387Z,95.80
2018-09-15T13:18:23.368Z,96.10
2018-09-15T13:20:52.648Z,96.30
2018-09-15T13:23:21.628Z,95.30
2018-09-15T13:25:50.607Z,95.30
2018-09-15T13:28:19.580Z,94.10
2018-09-15T13:30:48.748Z,95.10
2018-09-15T13:33:17.704Z,96.20
2018-09-15T13:35:46.737Z,96.20
2018-09-15T13:38:15.673Z,96.20
2018-09-15T13:40:44.600Z,95.80
2018-09-15T13:43:13.416Z,95.00
2018-09-15T13:45:42.453Z,94.50
2018-09-15T13:48:11.440Z,94.30
2018-09-15T13:50:40.443Z,94.50
2018-09-15T13:53:09.523Z,94.50
2018-09-15T13:55:38.360Z,94.90
2018-09-15T13:58:08.277Z,94.50
2018-09-15T14:00:37.740Z,94.30
2018-09-15T14:03:06.596Z,93.70
2018-09-15T14:05:35.596Z,93.70
2018-09-15T14:08:04.740Z,93.80
2018-09-15T14:10:33.745Z,93.90
2018-09-15T14:13:02.718Z,95.00
2018-09-15T14:15:31.624Z,94.60
2018-09-15T14:18:00.563Z,94.20
2018-09-15T14:20:29.538Z,93.60
2018-09-15T14:22:58.574Z,93.10
2018-09-15T14:25:27.679Z,92.80
2018-09-15T14:27:56.683Z,93.50
2018-09-15T14:30:25.769Z,94.00
2018-09-15T14:32:54.692Z,94.00
2018-09-15T14:37:50.583Z,93.80
2018-09-15T14:40:18.640Z,92.60
2018-09-15T14:42:46.700Z,93.30
2018-09-15T14:45:14.668Z,92.70
2018-09-15T14:47:42.716Z,92.10
2018-09-15T14:50:10.779Z,91.20
2018-09-15T14:52:38.900Z,92.40
2018-09-15T14:55:07.852Z,93.20
2018-09-15T14:57:35.834Z,92.80
2018-09-15T15:00:05.572Z,93.00
2018-09-15T15:02:34.588Z,93.10
2018-09-15T15:05:03.553Z,93.40
2018-09-15T15:07:32.574Z,93.70
2018-09-15T15:10:01.631Z,93.30
2018-09-15T15:12:30.660Z,93.00
2018-09-15T15:14:59.696Z,93.80
2018-09-15T15:17:28.672Z,92.20
2018-09-15T15:19:57.689Z,93.90
2018-09-15T15:22:26.672Z,93.50
2018-09-15T15:24:55.712Z,93.30
2018-09-15T15:27:24.741Z,92.50
2018-09-15T15:29:53.824Z,91.90
2018-09-15T15:32:22.791Z,92.80
2018-09-15T15:34:51.739Z,92.60
2018-09-15T15:37:20.656Z,92.30
2018-09-15T15:39:49.533Z,92.90
2018-09-15T15:42:19.485Z,92.80
2018-09-15T15:44:48.417Z,91.70
2018-09-15T15:47:17.364Z,92.20
2018-09-15T15:49:46.503Z,92.60
2018-09-15T15:52:15.517Z,93.10
2018-09-15T15:54:44.501Z,93.30
2018-09-15T15:57:13.472Z,93.40
2018-09-15T15:59:42.514Z,94.00
2018-09-15T16:02:11.501Z,93.40
2018-09-15T16:04:40.500Z,94.30
2018-09-15T16:07:09.522Z,94.30
2018-09-15T16:09:38.528Z,93.90
2018-09-15T16:12:07.525Z,94.00
2018-09-15T16:14:36.517Z,94.30
2018-09-15T16:17:05.547Z,93.00
2018-09-15T16:19:34.451Z,93.70
2018-09-15T16:22:03.444Z,93.50
2018-09-15T16:24:32.421Z,94.00
2018-09-15T16:27:01.356Z,94.50
2018-09-15T16:29:30.403Z,93.90
2018-09-15T16:31:59.364Z,94.60
2018-09-15T16:34:28.319Z,94.60
2018-09-15T16:36:57.303Z,94.40
2018-09-15T16:39:26.424Z,94.00
2018-09-15T16:41:55.421Z,94.50
2018-09-15T16:44:24.272Z,94.60
2018-09-15T16:46:53.295Z,94.30
2018-09-15T16:49:22.242Z,94.60
2018-09-15T16:51:51.518Z,94.00
2018-09-15T16:54:20.494Z,94.00
2018-09-15T16:56:49.646Z,95.30
2018-09-15T16:59:18.623Z,95.00
2018-09-15T17:01:47.640Z,93.90
2018-09-15T17:04:16.625Z,95.20
2018-09-15T17:06:45.616Z,94.40
2018-09-15T17:09:14.661Z,94.10
2018-09-15T17:11:43.765Z,94.00
2018-09-15T17:14:12.876Z,94.50
2018-09-15T17:16:42.050Z,94.10
2018-09-15T17:19:11.004Z,94.40
2018-09-15T17:21:39.879Z,93.60
2018-09-15T17:24:09.361Z,95.10
2018-09-15T17:26:38.276Z,94.00
2018-09-15T17:29:07.312Z,95.00
2018-09-15T17:31:36.485Z,94.60
2018-09-15T17:34:05.472Z,94.30
2018-09-15T17:36:34.403Z,94.10
2018-09-15T17:39:03.556Z,93.80
2018-09-15T17:41:32.553Z,94.10
2018-09-15T17:44:01.549Z,94.00
2018-09-15T17:46:30.441Z,94.10
2018-09-15T17:48:59.555Z,94.60
2018-09-15T17:51:28.691Z,94.40
2018-09-15T17:53:57.936Z,94.30
2018-09-15T17:56:27.067Z,94.30
2018-09-15T17:58:56.237Z,94.40
2018-09-15T18:01:25.386Z,94.50
2018-09-15T18:03:54.405Z,94.50
2018-09-15T18:06:23.444Z,94.50
2018-09-15T18:08:53.109Z,94.50
2018-09-15T18:11:22.577Z,94.60
2018-09-15T18:13:51.528Z,94.70
2018-09-15T18:16:20.455Z,94.80
2018-09-15T18:18:49.467Z,94.80
2018-09-15T18:21:18.494Z,94.90
2018-09-15T18:23:47.653Z,94.90
2018-09-15T18:26:16.657Z,95.00
2018-09-15T18:28:45.838Z,95.10
2018-09-15T18:31:14.812Z,95.20
2018-09-15T18:33:43.785Z,95.20
2018-09-15T18:36:12.863Z,95.20
2018-09-15T18:38:41.841Z,95.20
2018-09-15T18:41:10.830Z,95.40
2018-09-15T18:43:39.805Z,95.40
2018-09-15T18:46:08.807Z,95.40
2018-09-15T18:48:37.924Z,95.50
2018-09-15T18:51:07.001Z,95.40
2018-09-15T18:53:36.760Z,95.60
2018-09-15T18:56:05.772Z,95.40
2018-09-15T18:58:34.925Z,95.50
2018-09-15T19:01:04.093Z,95.50
2018-09-15T19:03:33.147Z,95.60
2018-09-15T19:06:02.523Z,95.60
2018-09-15T19:08:31.601Z,95.70
2018-09-15T19:11:00.581Z,95.70
2018-09-15T19:13:29.693Z,95.70
2018-09-15T19:15:59.328Z,95.70
2018-09-15T19:18:28.224Z,95.80
2018-09-15T19:20:57.260Z,95.80
2018-09-15T19:23:26.236Z,95.80
2018-09-15T19:25:55.285Z,95.80
2018-09-15T19:28:24.267Z,95.80
2018-09-15T19:30:53.249Z,96.10
2018-09-15T19:33:22.284Z,95.80
2018-09-15T19:35:51.101Z,96.10
2018-09-15T19:38:20.103Z,95.90
2018-09-15T19:40:49.067Z,96.20
2018-09-15T19:43:18.267Z,96.20
2018-09-15T19:45:47.489Z,95.90
2018-09-15T19:48:16.392Z,95.90
2018-09-15T19:50:45.400Z,95.90
2018-09-15T19:53:14.416Z,96.00
2018-09-15T19:55:43.375Z,96.00
2018-09-15T19:58:12.403Z,96.00
2018-09-15T20:00:41.573Z,96.00
2018-09-15T20:03:10.764Z,96.10
2018-09-15T20:05:39.740Z,96.10
2018-09-15T20:08:09.086Z,96.10
2018-09-15T20:10:38.374Z,96.10
2018-09-15T20:13:07.615Z,96.20
2018-09-15T20:15:35.069Z,96.10
2018-09-15T20:18:02.576Z,96.20
2018-09-15T20:20:30.166Z,96.10
2018-09-15T20:22:59.097Z,96.10
2018-09-15T20:25:27.996Z,96.20
2018-09-15T20:27:57.042Z,96.10
2018-09-15T20:30:25.907Z,96.10
2018-09-15T20:32:55.007Z,96.20
2018-09-15T20:35:23.919Z,96.10
2018-09-15T20:37:52.974Z,96.10
2018-09-15T20:40:21.944Z,96.20
2018-09-15T20:42:51.064Z,96.20
2018-09-15T20:45:20.030Z,96.30
2018-09-15T20:47:49.018Z,96.50
2018-09-15T20:50:18.105Z,96.50
2018-09-15T20:52:47.053Z,96.30
2018-09-15T20:55:16.100Z,97.00
2018-09-15T20:57:45.128Z,96.90
2018-09-15T21:00:14.239Z,96.90
2018-09-15T21:02:43.339Z,96.90
2018-09-15T21:05:13.224Z,96.80
2018-09-15T21:07:42.661Z,96.70
2018-09-15T21:10:11.777Z,96.70
2018-09-15T21:12:40.937Z,96.80
2018-09-15T21:15:10.026Z,96.50
2018-09-15T21:17:38.865Z,96.80
2018-09-15T21:20:07.876Z,96.80
2018-09-15T21:22:36.849Z,96.80
2018-09-15T21:25:05.871Z,96.80
2018-09-15T21:27:34.855Z,96.80
2018-09-15T21:30:03.908Z,96.70
2018-09-15T21:32:32.768Z,96.70
2018-09-15T21:35:01.952Z,96.80
2018-09-15T21:37:30.872Z,96.80
2018-09-15T21:39:59.812Z,96.70
2018-09-15T21:42:28.780Z,96.70
2018-09-15T21:44:57.720Z,96.70
2018-09-15T21:47:26.837Z,96.80
2018-09-15T21:49:55.741Z,96.80
2018-09-15T21:52:24.596Z,96.80
2018-09-15T21:54:53.637Z,96.80
2018-09-15T21:57:22.613Z,96.80
2018-09-15T21:59:51.632Z,96.80
2018-09-15T22:02:22.677Z,96.80
2018-09-15T22:04:52.047Z,96.80
2018-09-15T22:07:21.072Z,96.80
2018-09-15T22:09:50.119Z,96.80
2018-09-15T22:12:19.089Z,96.90
2018-09-15T22:14:48.145Z,96.80
2018-09-15T22:17:17.107Z,96.80
2018-09-15T22:19:46.160Z,96.80
2018-09-15T22:22:15.125Z,96.80
2018-09-15T22:24:44.250Z,96.80
2018-09-15T22:27:13.324Z,96.80
2018-09-15T22:29:42.245Z,96.80
2018-09-15T22:32:11.332Z,96.80
2018-09-15T22:34:40.556Z,96.80
2018-09-15T22:37:09.604Z,96.80
2018-09-15T22:39:38.550Z,96.80
2018-09-15T22:42:07.484Z,96.80
2018-09-15T22:44:36.360Z,96.70
2018-09-15T22:47:05.284Z,97.00
2018-09-15T22:49:34.193Z,97.00
2018-09-15T22:52:03.304Z,97.10
2018-09-15T22:54:32.288Z,96.90
2018-09-15T22:57:01.217Z,96.80
2018-09-15T22:59:30.193Z,96.80
2018-09-15T23:01:59.214Z,96.80
2018-09-15T23:04:28.197Z,96.90
2018-09-15T23:06:57.337Z,96.80
2018-09-15T23:09:26.419Z,96.80
2018-09-15T23:11:55.456Z,96.80
2018-09-15T23:14:24.522Z,96.70
2018-09-15T23:16:53.420Z,96.80
2018-09-15T23:19:22.228Z,96.80
2018-09-15T23:21:51.485Z,96.90
2018-09-15T23:24:20.464Z,96.90
2018-09-15T23:26:49.592Z,97.00
2018-09-15T23:29:18.684Z,96.90
2018-09-15T23:31:47.619Z,96.90
2018-09-15T23:34:16.829Z,96.90
2018-09-15T23:36:45.796Z,96.90
2018-09-15T23:39:14.839Z,96.90
2018-09-15T23:41:43.834Z,96.90
2018-09-15T23:44:12.864Z,97.00
2018-09-15T23:46:41.788Z,97.00
2018-09-15T23:49:10.558Z,97.10
2018-09-15T23:51:39.510Z,96.90
2018-09-15T23:54:08.544Z,96.90
2018-09-15T23:56:37.508Z,96.80
2018-09-15T23:59:06.924Z,96.80
